createdAt,value
2023-05-18T00:00:19.449Z,101881.78
2023-05-18T00:02:49.637Z,101884.56
2023-05-18T00:05:19.036Z,101880.91
2023-05-18T00:07:47.613Z,101877.59
2023-05-18T00:10:16.101Z,101873.69
2023-05-18T00:12:44.732Z,101866.50
2023-05-18T00:15:13.117Z,101871.59
2023-05-18T00:17:42.565Z,101869.84
2023-05-18T00:20:12.809Z,101871.50
2023-05-18T00:22:43.114Z,101874.91
2023-05-18T00:25:11.704Z,101877.88
2023-05-18T00:27:45.097Z,101879.41
2023-05-18T00:30:14.198Z,101876.94
2023-05-18T00:32:42.574Z,101879.53
2023-05-18T00:35:12.272Z,101878.78
2023-05-18T00:37:40.566Z,101883.16
2023-05-18T00:40:09.751Z,101880.91
2023-05-18T00:42:38.122Z,101882.81
2023-05-18T00:45:07.806Z,101886.13
2023-05-18T00:47:40.107Z,101876.91
2023-05-18T00:50:09.394Z,101874.53
2023-05-18T00:52:43.013Z,101881.97
2023-05-18T00:55:12.598Z,101870.28
2023-05-18T00:57:42.056Z,101876.78
2023-05-18T01:00:29.134Z,101877.13
2023-05-18T01:02:58.244Z,101870.50
2023-05-18T01:05:28.324Z,101873.34
2023-05-18T01:08:12.629Z,101871.47
2023-05-18T01:10:44.458Z,101872.88
2023-05-18T01:13:14.321Z,101874.88
2023-05-18T01:15:44.592Z,101867.66
2023-05-18T01:18:18.209Z,101870.75
2023-05-18T01:20:48.375Z,101864.72
2023-05-18T01:23:41.583Z,101874.75
2023-05-18T01:26:17.390Z,101885.97
2023-05-18T01:28:47.320Z,101880.41
2023-05-18T01:31:16.379Z,101893.03
2023-05-18T01:33:47.206Z,101886.84
2023-05-18T01:36:15.521Z,101877.78
2023-05-18T01:38:44.391Z,101891.00
2023-05-18T01:41:14.902Z,101891.72
2023-05-18T01:43:48.741Z,101888.88
2023-05-18T01:46:22.171Z,101889.94
2023-05-18T01:48:54.055Z,101887.09
2023-05-18T01:51:23.586Z,101892.97
2023-05-18T01:53:54.032Z,101887.44
2023-05-18T01:56:22.622Z,101885.66
2023-05-18T01:58:53.155Z,101884.84
2023-05-18T02:01:23.079Z,101882.47
2023-05-18T02:03:51.997Z,101884.38
2023-05-18T02:06:21.026Z,101882.84
2023-05-18T02:08:49.641Z,101888.84
2023-05-18T02:11:18.017Z,101884.00
2023-05-18T02:13:46.230Z,101885.44
2023-05-18T02:16:15.930Z,101881.97
2023-05-18T02:18:44.711Z,101882.81
2023-05-18T02:21:19.552Z,101882.53
2023-05-18T02:23:47.881Z,101881.16
2023-05-18T02:26:16.193Z,101882.56
2023-05-18T02:28:44.397Z,101884.56
2023-05-18T02:31:12.992Z,101884.03
2023-05-18T02:33:42.659Z,101892.97
2023-05-18T02:36:12.374Z,101895.53
2023-05-18T02:38:42.189Z,101888.00
2023-05-18T02:41:10.788Z,101891.78
2023-05-18T02:43:39.022Z,101892.09
2023-05-18T02:46:07.536Z,101897.28
2023-05-18T02:48:35.921Z,101897.72
2023-05-18T02:51:05.936Z,101897.81
2023-05-18T02:53:34.139Z,101899.63
2023-05-18T02:56:03.715Z,101895.25
2023-05-18T02:58:32.165Z,101901.56
2023-05-18T03:01:00.900Z,101899.56
2023-05-18T03:03:57.823Z,101896.16
2023-05-18T03:06:30.229Z,101891.44
2023-05-18T03:08:58.832Z,101898.03
2023-05-18T03:11:27.326Z,101902.34
2023-05-18T03:13:56.138Z,101900.53
2023-05-18T03:16:28.877Z,101901.75
2023-05-18T03:18:59.140Z,101897.22
2023-05-18T03:21:33.773Z,101895.13
2023-05-18T03:24:02.637Z,101899.50
2023-05-18T03:26:31.257Z,101909.28
2023-05-18T03:29:01.190Z,101898.81
2023-05-18T03:31:29.472Z,101899.66
2023-05-18T03:33:57.755Z,101895.13
2023-05-18T03:36:28.212Z,101894.97
2023-05-18T03:38:57.855Z,101895.72
2023-05-18T03:41:26.109Z,101902.88
2023-05-18T03:43:54.412Z,101912.72
2023-05-18T03:46:23.040Z,101906.84
2023-05-18T03:48:53.859Z,101903.53
2023-05-18T03:51:22.251Z,101904.84
2023-05-18T03:53:51.190Z,101899.50
2023-05-18T03:56:23.132Z,101898.88
2023-05-18T03:58:51.554Z,101900.09
2023-05-18T04:01:19.969Z,101911.53
2023-05-18T04:03:48.384Z,101908.38
2023-05-18T04:06:16.895Z,101912.91
2023-05-18T04:08:46.241Z,101907.47
2023-05-18T04:11:14.611Z,101910.75
2023-05-18T04:13:47.212Z,101913.25
2023-05-18T04:16:15.608Z,101914.66
2023-05-18T04:18:44.386Z,101924.91
2023-05-18T04:21:12.692Z,101926.50
2023-05-18T04:23:40.972Z,101918.06
2023-05-18T04:26:10.015Z,101923.31
2023-05-18T04:28:38.696Z,101917.38
2023-05-18T04:31:08.527Z,101927.16
2023-05-18T04:33:37.024Z,101928.38
2023-05-18T04:36:05.604Z,101925.78
2023-05-18T04:38:34.583Z,101922.00
2023-05-18T04:41:13.439Z,101924.63
2023-05-18T04:43:45.574Z,101926.28
2023-05-18T04:46:16.955Z,101937.28
2023-05-18T04:48:49.856Z,101939.00
2023-05-18T04:51:21.677Z,101932.50
2023-05-18T04:53:51.131Z,101931.09
2023-05-18T04:56:20.589Z,101936.53
2023-05-18T04:58:49.086Z,101930.66
2023-05-18T05:01:20.220Z,101943.63
2023-05-18T05:03:48.608Z,101939.38
2023-05-18T05:06:19.764Z,101936.94
2023-05-18T05:08:48.094Z,101939.78
2023-05-18T05:11:25.185Z,101938.84
2023-05-18T05:13:55.651Z,101934.59
2023-05-18T05:16:26.029Z,101937.44
2023-05-18T05:19:00.715Z,101928.38
2023-05-18T05:21:29.605Z,101928.63
2023-05-18T05:23:57.924Z,101936.19
2023-05-18T05:26:26.428Z,101930.38
2023-05-18T05:28:54.694Z,101933.84
2023-05-18T05:31:23.001Z,101943.44
2023-05-18T05:33:52.717Z,101947.34
2023-05-18T05:36:20.960Z,101948.97
2023-05-18T05:38:49.344Z,101945.06
2023-05-18T05:41:30.543Z,101941.41
2023-05-18T05:44:00.740Z,101939.47
2023-05-18T05:46:29.006Z,101944.31
2023-05-18T05:48:58.652Z,101939.56
2023-05-18T05:51:27.027Z,101937.78
2023-05-18T05:53:55.708Z,101943.00
2023-05-18T05:56:24.067Z,101946.31
2023-05-18T05:58:52.872Z,101949.44
2023-05-18T06:01:21.540Z,101947.19
2023-05-18T06:04:12.725Z,101954.91
2023-05-18T06:06:41.522Z,101946.72
2023-05-18T06:09:10.041Z,101945.75
2023-05-18T06:11:38.288Z,101948.50
2023-05-18T06:14:06.710Z,101948.50
2023-05-18T06:16:35.979Z,101951.81
2023-05-18T06:19:04.570Z,101949.03
2023-05-18T06:21:34.625Z,101949.97
2023-05-18T06:24:04.976Z,101950.88
2023-05-18T06:26:33.551Z,101958.13
2023-05-18T06:29:02.915Z,101955.84
2023-05-18T06:31:31.371Z,101962.69
2023-05-18T06:33:59.867Z,101958.78
2023-05-18T06:36:32.087Z,101963.91
2023-05-18T06:39:02.744Z,101955.88
2023-05-18T06:41:31.074Z,101956.13
2023-05-18T06:44:01.619Z,101951.97
2023-05-18T06:46:29.928Z,101962.25
2023-05-18T06:48:58.460Z,101970.19
2023-05-18T06:51:28.674Z,101968.22
2023-05-18T06:53:56.961Z,101959.84
2023-05-18T06:56:26.812Z,101962.84
2023-05-18T06:58:55.281Z,101949.75
2023-05-18T07:01:24.277Z,101966.97
2023-05-18T07:03:52.800Z,101968.44
2023-05-18T07:06:21.531Z,101964.00
2023-05-18T07:08:49.903Z,101968.19
2023-05-18T07:11:18.289Z,101968.13
2023-05-18T07:13:48.323Z,101962.84
2023-05-18T07:16:16.796Z,101970.06
2023-05-18T07:18:47.291Z,101968.97
2023-05-18T07:21:15.898Z,101970.13
2023-05-18T07:23:44.207Z,101974.75
2023-05-18T07:26:14.312Z,101972.69
2023-05-18T07:28:42.813Z,101978.81
2023-05-18T07:31:14.470Z,101967.31
2023-05-18T07:33:43.088Z,101967.69
2023-05-18T07:36:11.377Z,101971.03
2023-05-18T07:38:39.615Z,101970.88
2023-05-18T07:41:07.941Z,101973.53
2023-05-18T07:43:36.219Z,101972.19
2023-05-18T07:46:04.572Z,101977.66
2023-05-18T07:48:34.169Z,101970.56
2023-05-18T07:51:02.916Z,101971.03
2023-05-18T07:53:31.156Z,101964.97
2023-05-18T07:56:00.154Z,101972.69
2023-05-18T07:58:28.516Z,101968.81
2023-05-18T08:00:56.950Z,101967.81
2023-05-18T08:03:25.367Z,101969.00
2023-05-18T08:05:55.046Z,101962.50
2023-05-18T08:08:23.453Z,101969.88
2023-05-18T08:10:52.077Z,101961.50
2023-05-18T08:13:20.518Z,101960.09
2023-05-18T08:15:56.020Z,101964.00
2023-05-18T08:18:28.002Z,101962.47
2023-05-18T08:20:58.242Z,101950.47
2023-05-18T08:23:26.620Z,101952.75
2023-05-18T08:25:56.926Z,101955.41
2023-05-18T08:28:25.184Z,101945.09
2023-05-18T08:30:53.952Z,101947.88
2023-05-18T08:33:23.292Z,101946.41
2023-05-18T08:35:51.746Z,101936.22
2023-05-18T08:38:21.861Z,101937.97
2023-05-18T08:40:53.454Z,101933.97
2023-05-18T08:43:23.292Z,101930.63
2023-05-18T08:45:54.012Z,101947.03
2023-05-18T08:48:25.712Z,101948.88
2023-05-18T08:50:57.198Z,101938.41
2023-05-18T08:53:27.326Z,101935.38
2023-05-18T08:55:55.734Z,101938.28
2023-05-18T08:58:28.519Z,101933.13
2023-05-18T09:00:58.031Z,101944.22
2023-05-18T09:03:26.414Z,101931.19
2023-05-18T09:05:56.746Z,101929.06
2023-05-18T09:08:25.877Z,101929.19
2023-05-18T09:10:57.782Z,101926.31
2023-05-18T09:13:26.993Z,101918.22
2023-05-18T09:15:56.406Z,101919.34
2023-05-18T09:18:26.839Z,101920.44
2023-05-18T09:20:56.807Z,101922.41
2023-05-18T09:23:25.483Z,101914.56
2023-05-18T09:25:55.655Z,101916.16
2023-05-18T09:28:27.992Z,101910.91
2023-05-18T09:30:57.137Z,101924.97
2023-05-18T09:33:25.513Z,101906.44
2023-05-18T09:35:53.977Z,101914.00
2023-05-18T09:38:23.215Z,101910.28
2023-05-18T09:40:51.700Z,101905.72
2023-05-18T09:43:23.958Z,101905.91
2023-05-18T09:45:52.318Z,101896.25
2023-05-18T09:48:24.255Z,101915.38
2023-05-18T09:50:53.871Z,101905.19
2023-05-18T09:53:22.231Z,101910.94
2023-05-18T09:55:50.957Z,101903.94
2023-05-18T09:58:19.337Z,101911.94
2023-05-18T10:00:51.850Z,101918.09
2023-05-18T10:03:21.757Z,101918.94
2023-05-18T10:05:52.712Z,101918.31
2023-05-18T10:08:21.499Z,101915.19
2023-05-18T10:10:50.672Z,101899.28
2023-05-18T10:13:20.770Z,101897.44
2023-05-18T10:15:53.960Z,101898.28
2023-05-18T10:18:24.130Z,101900.13
2023-05-18T10:20:53.403Z,101896.47
2023-05-18T10:23:24.899Z,101902.75
2023-05-18T10:25:53.854Z,101890.56
2023-05-18T10:28:26.033Z,101891.09
2023-05-18T10:30:57.023Z,101898.09
2023-05-18T10:33:29.476Z,101889.88
2023-05-18T10:35:59.401Z,101890.66
2023-05-18T10:38:33.144Z,101890.88
2023-05-18T10:41:05.612Z,101885.88
2023-05-18T10:44:11.101Z,101879.91
2023-05-18T10:47:15.243Z,101884.81
2023-05-18T10:50:38.905Z,101875.56
2023-05-18T10:53:18.578Z,101871.00
2023-05-18T10:55:53.116Z,101873.75
2023-05-18T10:58:22.578Z,101865.66
2023-05-18T11:00:51.839Z,101862.59
2023-05-18T11:03:22.382Z,101857.22
2023-05-18T11:05:51.180Z,101861.50
2023-05-18T11:08:26.862Z,101860.88
2023-05-18T11:11:01.954Z,101858.25
2023-05-18T11:13:32.026Z,101861.25
2023-05-18T11:16:05.220Z,101858.22
2023-05-18T11:18:50.365Z,101861.75
2023-05-18T11:21:19.760Z,101859.28
2023-05-18T11:24:03.538Z,101862.16
2023-05-18T11:26:31.945Z,101867.28
2023-05-18T11:29:00.483Z,101862.72
2023-05-18T11:31:44.163Z,101857.59
2023-05-18T11:34:31.097Z,101851.16
2023-05-18T11:37:01.376Z,101856.16
2023-05-18T11:39:29.937Z,101860.28
2023-05-18T11:42:37.975Z,101857.78
2023-05-18T11:53:02.115Z,101853.41
2023-05-18T12:04:10.342Z,101831.44
2023-05-18T12:07:43.623Z,101825.44
2023-05-18T12:11:28.235Z,101827.84
2023-05-18T12:14:16.463Z,101823.69
2023-05-18T12:17:00.962Z,101818.50
2023-05-18T12:19:37.684Z,101820.25
2023-05-18T12:22:07.294Z,101823.81
2023-05-18T12:24:42.656Z,101826.75
2023-05-18T12:27:12.017Z,101814.44
2023-05-18T12:29:41.110Z,101826.03
2023-05-18T12:32:12.332Z,101811.28
2023-05-18T12:34:40.929Z,101812.66
2023-05-18T12:37:09.246Z,101808.50
2023-05-18T12:39:37.720Z,101805.50
2023-05-18T12:42:12.782Z,101802.53
2023-05-18T12:44:55.402Z,101804.47
2023-05-18T12:47:25.456Z,101799.56
2023-05-18T12:49:53.812Z,101792.63
2023-05-18T12:52:24.431Z,101805.13
2023-05-18T12:54:58.608Z,101793.94
2023-05-18T12:57:33.931Z,101800.38
2023-05-18T13:00:02.299Z,101804.09
2023-05-18T13:02:36.004Z,101790.63
2023-05-18T13:05:05.413Z,101792.22
2023-05-18T13:07:46.859Z,101792.13
2023-05-18T13:10:18.043Z,101784.69
2023-05-18T13:12:50.126Z,101787.78
2023-05-18T13:15:20.977Z,101781.06
2023-05-18T13:17:56.973Z,101774.31
2023-05-18T13:20:30.533Z,101774.25
2023-05-18T13:22:59.665Z,101768.53
2023-05-18T13:25:28.129Z,101773.06
2023-05-18T13:27:57.303Z,101762.41
2023-05-18T13:30:26.019Z,101772.50
2023-05-18T13:32:55.837Z,101777.50
2023-05-18T13:35:24.437Z,101764.59
2023-05-18T13:37:56.853Z,101761.69
2023-05-18T13:40:25.749Z,101758.66
2023-05-18T13:42:54.215Z,101750.34
2023-05-18T13:45:24.971Z,101758.84
2023-05-18T13:47:55.930Z,101746.31
2023-05-18T13:50:26.428Z,101750.78
2023-05-18T13:52:55.552Z,101739.97
2023-05-18T13:55:24.002Z,101747.78
2023-05-18T13:57:52.593Z,101733.03
2023-05-18T14:00:26.348Z,101748.94
2023-05-18T14:02:54.941Z,101737.03
2023-05-18T14:05:23.464Z,101736.56
2023-05-18T14:07:53.288Z,101732.41
2023-05-18T14:10:21.579Z,101740.13
2023-05-18T14:12:50.211Z,101728.94
2023-05-18T14:15:18.638Z,101728.25
2023-05-18T14:17:46.994Z,101725.34
2023-05-18T14:20:15.997Z,101711.41
2023-05-18T14:22:44.266Z,101711.34
2023-05-18T14:25:13.867Z,101714.88
2023-05-18T14:27:45.194Z,101710.44
2023-05-18T14:30:14.202Z,101711.94
2023-05-18T14:32:42.534Z,101716.34
2023-05-18T14:35:11.072Z,101710.78
2023-05-18T14:37:39.588Z,101716.47
2023-05-18T14:40:09.629Z,101707.00
2023-05-18T14:42:39.858Z,101708.72
2023-05-18T14:45:08.741Z,101708.50
2023-05-18T14:47:37.066Z,101718.69
2023-05-18T14:50:05.566Z,101714.34
2023-05-18T14:52:34.036Z,101711.03
2023-05-18T14:55:02.607Z,101716.66
2023-05-18T14:57:31.082Z,101711.03
2023-05-18T15:00:01.433Z,101712.06
2023-05-18T15:02:30.332Z,101706.81
2023-05-18T15:04:58.631Z,101711.81
2023-05-18T15:07:27.012Z,101711.38
2023-05-18T15:09:56.392Z,101710.91
2023-05-18T15:12:24.703Z,101713.16
2023-05-18T15:14:53.347Z,101707.44
2023-05-18T15:17:23.214Z,101703.84
2023-05-18T15:19:51.433Z,101709.25
2023-05-18T15:22:19.752Z,101699.00
2023-05-18T15:24:48.164Z,101710.22
2023-05-18T15:27:16.565Z,101708.72
2023-05-18T15:29:44.889Z,101709.28
2023-05-18T15:32:13.487Z,101710.97
2023-05-18T15:34:44.021Z,101716.69
2023-05-18T15:37:12.326Z,101705.75
2023-05-18T15:39:41.061Z,101700.75
2023-05-18T15:42:09.495Z,101695.97
2023-05-18T15:44:37.987Z,101703.66
2023-05-18T15:47:06.589Z,101703.47
2023-05-18T15:49:35.048Z,101696.28
2023-05-18T15:52:05.113Z,101691.06
2023-05-18T15:54:33.493Z,101701.66
2023-05-18T15:57:02.137Z,101687.00
2023-05-18T15:59:30.610Z,101686.91
2023-05-18T16:01:58.875Z,101689.81
2023-05-18T16:04:27.297Z,101688.00
2023-05-18T16:06:55.677Z,101684.53
2023-05-18T16:09:25.392Z,101685.84
2023-05-18T16:11:53.693Z,101683.59
2023-05-18T16:14:22.129Z,101687.34
2023-05-18T16:16:50.538Z,101676.59
2023-05-18T16:19:19.049Z,101679.41
2023-05-18T16:21:47.769Z,101672.34
2023-05-18T16:24:16.163Z,101668.56
2023-05-18T16:26:46.363Z,101666.94
2023-05-18T16:29:14.726Z,101677.56
2023-05-18T16:31:43.150Z,101673.44
2023-05-18T16:34:11.662Z,101677.56
2023-05-18T16:36:39.962Z,101682.81
2023-05-18T16:39:08.233Z,101670.47
2023-05-18T16:41:36.564Z,101681.16
2023-05-18T16:44:06.531Z,101672.47
2023-05-18T16:46:35.033Z,101666.94
2023-05-18T16:49:03.530Z,101677.91
2023-05-18T16:51:32.195Z,101682.31
2023-05-18T16:54:01.275Z,101670.22
2023-05-18T16:56:29.907Z,101669.09
2023-05-18T16:58:58.338Z,101665.53
2023-05-18T17:01:29.220Z,101670.28
2023-05-18T17:03:58.455Z,101671.44
2023-05-18T17:06:27.049Z,101666.97
2023-05-18T17:08:58.577Z,101662.22
2023-05-18T17:11:27.474Z,101660.34
2023-05-18T17:13:56.175Z,101665.44
2023-05-18T17:16:26.616Z,101669.03
2023-05-18T17:18:57.599Z,101661.25
2023-05-18T17:21:28.537Z,101659.22
2023-05-18T17:23:57.020Z,101659.81
2023-05-18T17:26:30.366Z,101660.75
2023-05-18T17:28:59.450Z,101653.69
2023-05-18T17:31:28.512Z,101660.22
2023-05-18T17:34:02.031Z,101649.19
2023-05-18T17:36:32.376Z,101656.56
2023-05-18T17:39:00.654Z,101657.97
2023-05-18T17:41:28.957Z,101654.34
2023-05-18T17:43:57.388Z,101650.00
2023-05-18T17:46:26.048Z,101657.66
2023-05-18T17:48:54.720Z,101658.38
2023-05-18T17:51:24.955Z,101658.78
2023-05-18T17:53:53.625Z,101648.16
2023-05-18T17:56:22.246Z,101657.75
2023-05-18T17:58:50.540Z,101651.47
2023-05-18T18:01:19.474Z,101666.81
2023-05-18T18:03:48.546Z,101657.59
2023-05-18T18:06:22.415Z,101656.47
2023-05-18T18:08:53.579Z,101654.97
2023-05-18T18:11:22.738Z,101666.66
2023-05-18T18:13:51.738Z,101663.03
2023-05-18T18:16:20.728Z,101662.63
2023-05-18T18:18:49.614Z,101664.88
2023-05-18T18:21:18.170Z,101669.84
2023-05-18T18:23:46.709Z,101666.13
2023-05-18T18:26:16.370Z,101662.88
2023-05-18T18:28:44.678Z,101672.97
2023-05-18T18:31:13.039Z,101673.88
2023-05-18T18:33:43.965Z,101676.31
2023-05-18T18:36:16.029Z,101673.25
2023-05-18T18:38:45.295Z,101677.13
2023-05-18T18:41:17.222Z,101678.81
2023-05-18T18:43:53.756Z,101673.03
2023-05-18T18:46:22.206Z,101684.69
2023-05-18T18:48:50.749Z,101679.28
2023-05-18T18:51:22.057Z,101681.56
2023-05-18T18:53:57.778Z,101678.38
2023-05-18T18:56:27.279Z,101675.22
2023-05-18T18:58:57.112Z,101678.50
2023-05-18T19:01:25.641Z,101674.81
2023-05-18T19:03:53.974Z,101675.41
2023-05-18T19:06:23.231Z,101674.00
2023-05-18T19:08:53.237Z,101671.22
2023-05-18T19:11:23.345Z,101683.34
2023-05-18T19:13:51.690Z,101675.47
2023-05-18T19:16:21.826Z,101684.34
2023-05-18T19:18:50.370Z,101689.69
2023-05-18T19:21:19.595Z,101694.72
2023-05-18T19:23:47.917Z,101689.75
2023-05-18T19:26:16.306Z,101690.81
2023-05-18T19:28:44.704Z,101690.06
2023-05-18T19:31:18.777Z,101693.69
2023-05-18T19:33:48.574Z,101687.06
2023-05-18T19:36:17.493Z,101702.34
2023-05-18T19:38:46.582Z,101705.97
2023-05-18T19:41:14.966Z,101711.75
2023-05-18T19:43:43.840Z,101707.66
2023-05-18T19:46:12.272Z,101715.84
2023-05-18T19:48:40.919Z,101720.84
2023-05-18T19:51:10.580Z,101711.00
2023-05-18T19:53:39.028Z,101722.81
2023-05-18T19:56:07.447Z,101728.56
2023-05-18T19:58:35.866Z,101722.25
2023-05-18T20:01:11.157Z,101731.91
2023-05-18T20:03:42.942Z,101728.66
2023-05-18T20:06:14.989Z,101733.03
2023-05-18T20:08:44.500Z,101731.38
2023-05-18T20:11:14.810Z,101734.13
2023-05-18T20:13:46.104Z,101734.69
2023-05-18T20:16:17.299Z,101736.59
2023-05-18T20:18:46.567Z,101739.66
2023-05-18T20:21:18.446Z,101730.63
2023-05-18T20:23:47.436Z,101738.56
2023-05-18T20:26:16.498Z,101733.38
2023-05-18T20:28:44.865Z,101741.31
2023-05-18T20:31:13.594Z,101738.59
2023-05-18T20:33:42.644Z,101742.47
2023-05-18T20:36:11.891Z,101740.28
2023-05-18T20:38:41.720Z,101747.94
2023-05-18T20:41:10.318Z,101744.66
2023-05-18T20:43:38.773Z,101745.47
2023-05-18T20:46:08.046Z,101749.56
2023-05-18T20:48:37.373Z,101747.94
2023-05-18T20:51:18.818Z,101749.28
2023-05-18T20:53:51.585Z,101744.13
2023-05-18T20:56:21.968Z,101751.75
2023-05-18T20:58:50.561Z,101753.69
2023-05-18T21:01:21.215Z,101750.16
2023-05-18T21:03:50.778Z,101749.59
2023-05-18T21:06:19.663Z,101745.22
2023-05-18T21:08:47.937Z,101752.03
2023-05-18T21:11:17.674Z,101754.50
2023-05-18T21:13:46.049Z,101751.22
2023-05-18T21:16:14.953Z,101746.81
2023-05-18T21:18:43.379Z,101750.66
2023-05-18T21:21:12.401Z,101758.34
2023-05-18T21:23:40.909Z,101753.13
2023-05-18T21:26:09.177Z,101749.81
2023-05-18T21:28:39.416Z,101755.03
2023-05-18T21:31:07.919Z,101753.38
2023-05-18T21:33:38.517Z,101752.28
2023-05-18T21:36:10.922Z,101759.38
2023-05-18T21:38:39.622Z,101759.91
2023-05-18T21:41:07.905Z,101758.28
2023-05-18T21:43:37.315Z,101767.78
2023-05-18T21:46:09.336Z,101762.63
2023-05-18T21:48:39.574Z,101761.78
2023-05-18T21:51:11.855Z,101761.78
2023-05-18T21:53:43.150Z,101765.25
2023-05-18T21:56:12.709Z,101758.13
2023-05-18T21:58:41.010Z,101754.84
2023-05-18T22:01:12.665Z,101758.16
2023-05-18T22:03:43.582Z,101753.78
2023-05-18T22:06:12.040Z,101760.88
2023-05-18T22:08:41.512Z,101755.97
2023-05-18T22:11:10.267Z,101754.28
2023-05-18T22:13:38.941Z,101760.03
2023-05-18T22:16:11.833Z,101767.13
2023-05-18T22:18:42.077Z,101762.44
2023-05-18T22:21:14.762Z,101760.56
2023-05-18T22:23:44.837Z,101761.31
2023-05-18T22:26:13.605Z,101757.78
2023-05-18T22:28:45.571Z,101764.06
2023-05-18T22:31:15.746Z,101761.56
2023-05-18T22:33:48.003Z,101761.78
2023-05-18T22:36:23.279Z,101755.69
2023-05-18T22:38:52.546Z,101761.69
2023-05-18T22:41:21.958Z,101758.41
2023-05-18T22:43:50.736Z,101754.81
2023-05-18T22:46:22.903Z,101754.78
2023-05-18T22:48:53.655Z,101756.66
2023-05-18T22:51:23.810Z,101753.97
2023-05-18T22:53:52.185Z,101754.50
2023-05-18T22:56:23.820Z,101753.63
2023-05-18T22:58:52.672Z,101757.44
2023-05-18T23:01:23.067Z,101753.78
2023-05-18T23:03:54.749Z,101750.00
2023-05-18T23:06:23.933Z,101758.44
2023-05-18T23:08:52.196Z,101754.00
2023-05-18T23:11:22.119Z,101758.44
2023-05-18T23:13:53.381Z,101756.53
2023-05-18T23:16:24.264Z,101759.22
2023-05-18T23:18:53.660Z,101757.38
2023-05-18T23:21:22.783Z,101760.88
2023-05-18T23:23:51.878Z,101764.09
2023-05-18T23:26:22.967Z,101762.16
2023-05-18T23:28:51.760Z,101751.97
2023-05-18T23:31:25.479Z,101746.00
2023-05-18T23:33:55.773Z,101747.53
2023-05-18T23:36:30.458Z,101757.69
2023-05-18T23:39:06.341Z,101745.38
2023-05-18T23:41:35.325Z,101749.69
2023-05-18T23:44:04.355Z,101740.94
2023-05-18T23:46:35.467Z,101742.03
2023-05-18T23:49:04.493Z,101738.72
2023-05-18T23:51:36.298Z,101731.63
2023-05-18T23:54:09.391Z,101733.22
2023-05-18T23:56:38.963Z,101740.28
2023-05-18T23:59:11.229Z,101727.09
